createdAt,value
2022-09-26T00:00:48.796Z,1005.20
2022-09-26T00:01:52.986Z,1005.18
2022-09-26T00:02:57.320Z,1005.16
2022-09-26T00:04:01.602Z,1005.17
2022-09-26T00:05:05.895Z,1005.17
2022-09-26T00:06:10.203Z,1005.14
2022-09-26T00:07:14.392Z,1005.10
2022-09-26T00:08:18.742Z,1005.09
2022-09-26T00:09:23.019Z,1005.07
2022-09-26T00:10:27.279Z,1005.06
2022-09-26T00:11:31.587Z,1005.02
2022-09-26T00:12:35.820Z,1005.00
2022-09-26T00:13:40.138Z,1005.01
2022-09-26T00:14:44.367Z,1004.99
2022-09-26T00:15:48.624Z,1004.98
2022-09-26T00:16:52.971Z,1005.00
2022-09-26T00:17:57.165Z,1004.98
2022-09-26T00:19:01.397Z,1004.97
2022-09-26T00:20:05.640Z,1004.94
2022-09-26T00:21:09.954Z,1004.93
2022-09-26T00:22:14.256Z,1004.91
2022-09-26T00:23:18.472Z,1004.89
2022-09-26T00:24:22.727Z,1004.88
2022-09-26T00:25:27.086Z,1004.87
2022-09-26T00:26:31.170Z,1004.88
2022-09-26T00:27:35.444Z,1004.91
2022-09-26T00:28:39.815Z,1004.90
2022-09-26T00:29:44.104Z,1004.88
2022-09-26T00:30:48.454Z,1004.86
2022-09-26T00:31:52.650Z,1004.87
2022-09-26T00:32:56.875Z,1004.85
2022-09-26T00:34:01.099Z,1004.84
2022-09-26T00:35:05.368Z,1004.84
2022-09-26T00:36:09.636Z,1004.83
2022-09-26T00:37:13.894Z,1004.85
2022-09-26T00:38:18.203Z,1004.84
2022-09-26T00:39:22.434Z,1004.83
2022-09-26T00:40:26.920Z,1004.86
2022-09-26T00:41:31.123Z,1004.85
2022-09-26T00:42:35.247Z,1004.83
2022-09-26T00:43:39.535Z,1004.84
2022-09-26T00:44:43.804Z,1004.82
2022-09-26T00:45:48.211Z,1004.83
2022-09-26T00:46:52.330Z,1004.80
2022-09-26T00:47:56.604Z,1004.78
2022-09-26T00:49:00.913Z,1004.77
2022-09-26T00:50:05.197Z,1004.74
2022-09-26T00:51:09.419Z,1004.74
2022-09-26T00:52:13.680Z,1004.73
2022-09-26T00:53:17.989Z,1004.71
2022-09-26T00:54:22.320Z,1004.67
2022-09-26T00:55:26.598Z,1004.66
2022-09-26T00:56:30.787Z,1004.65
2022-09-26T00:57:35.120Z,1004.65
2022-09-26T00:58:39.318Z,1004.63
2022-09-26T00:59:43.625Z,1004.62
2022-09-26T01:00:47.954Z,1004.63
2022-09-26T01:01:52.293Z,1004.62
2022-09-26T01:02:56.408Z,1004.61
2022-09-26T01:04:00.627Z,1004.59
2022-09-26T01:05:04.956Z,1004.56
2022-09-26T01:06:09.149Z,1004.55
2022-09-26T01:07:13.415Z,1004.52
2022-09-26T01:08:17.663Z,1004.50
2022-09-26T01:09:21.930Z,1004.48
2022-09-26T01:10:26.202Z,1004.45
2022-09-26T01:11:30.436Z,1004.41
2022-09-26T01:12:34.668Z,1004.41
2022-09-26T01:13:38.994Z,1004.36
2022-09-26T01:14:43.195Z,1004.36
2022-09-26T01:15:47.493Z,1004.34
2022-09-26T01:16:51.775Z,1004.28
2022-09-26T01:17:56.002Z,1004.30
2022-09-26T01:19:00.298Z,1004.27
2022-09-26T01:20:04.562Z,1004.26
2022-09-26T01:21:08.853Z,1004.22
2022-09-26T01:22:14.082Z,1004.19
2022-09-26T01:23:18.010Z,1004.18
2022-09-26T01:24:22.224Z,1004.18
2022-09-26T01:25:26.508Z,1004.18
2022-09-26T01:26:30.727Z,1004.19
2022-09-26T01:27:34.965Z,1004.17
2022-09-26T01:28:39.233Z,1004.14
2022-09-26T01:29:43.509Z,1004.12
2022-09-26T01:30:47.835Z,1004.12
2022-09-26T01:31:52.032Z,1004.10
2022-09-26T01:32:56.254Z,1004.06
2022-09-26T01:34:00.524Z,1004.04
2022-09-26T01:35:04.794Z,1004.02
2022-09-26T01:36:09.074Z,1004.00
2022-09-26T01:37:13.311Z,1003.99
2022-09-26T01:38:17.645Z,1004.01
2022-09-26T01:39:21.841Z,1004.00
2022-09-26T01:40:26.129Z,1003.99
2022-09-26T01:41:30.305Z,1004.02
2022-09-26T01:42:34.659Z,1004.04
2022-09-26T01:43:38.895Z,1004.06
2022-09-26T01:44:43.131Z,1004.05
2022-09-26T01:45:47.434Z,1004.04
2022-09-26T01:46:51.623Z,1004.03
2022-09-26T01:47:55.846Z,1004.02
2022-09-26T01:49:00.130Z,1004.00
2022-09-26T01:50:04.354Z,1003.97
2022-09-26T01:51:08.621Z,1003.95
2022-09-26T01:52:12.855Z,1003.95
2022-09-26T01:53:17.083Z,1003.94
2022-09-26T01:54:21.356Z,1003.92
2022-09-26T01:55:25.562Z,1003.90
2022-09-26T01:56:29.899Z,1003.91
2022-09-26T01:57:34.101Z,1003.93
2022-09-26T01:58:38.353Z,1003.94
2022-09-26T01:59:42.621Z,1003.94
2022-09-26T02:00:46.933Z,1003.91
2022-09-26T02:01:51.284Z,1003.92
2022-09-26T02:02:55.512Z,1003.90
2022-09-26T02:03:59.704Z,1003.89
2022-09-26T02:05:03.971Z,1003.86
2022-09-26T02:06:08.181Z,1003.86
2022-09-26T02:07:12.400Z,1003.87
2022-09-26T02:08:16.669Z,1003.87
2022-09-26T02:09:20.919Z,1003.85
2022-09-26T02:10:25.159Z,1003.86
2022-09-26T02:11:29.409Z,1003.87
2022-09-26T02:12:33.661Z,1003.85
2022-09-26T02:13:37.866Z,1003.86
2022-09-26T02:14:42.221Z,1003.86
2022-09-26T02:15:46.410Z,1003.85
2022-09-26T02:16:50.750Z,1003.82
2022-09-26T02:17:54.932Z,1003.81
2022-09-26T02:18:59.146Z,1003.80
2022-09-26T02:20:03.399Z,1003.79
2022-09-26T02:21:07.627Z,1003.78
2022-09-26T02:22:11.839Z,1003.77
2022-09-26T02:23:16.150Z,1003.78
2022-09-26T02:24:20.328Z,1003.77
2022-09-26T02:25:24.592Z,1003.73
2022-09-26T02:26:28.850Z,1003.74
2022-09-26T02:27:33.162Z,1003.69
2022-09-26T02:28:37.394Z,1003.67
2022-09-26T02:29:41.577Z,1003.67
2022-09-26T02:30:45.847Z,1003.68
2022-09-26T02:31:50.179Z,1003.67
2022-09-26T02:32:54.344Z,1003.66
2022-09-26T02:33:58.636Z,1003.65
2022-09-26T02:35:02.845Z,1003.64
2022-09-26T02:36:07.076Z,1003.66
2022-09-26T02:37:11.283Z,1003.66
2022-09-26T02:38:15.530Z,1003.65
2022-09-26T02:39:19.828Z,1003.65
2022-09-26T02:40:24.083Z,1003.63
2022-09-26T02:41:28.287Z,1003.62
2022-09-26T02:42:32.523Z,1003.60
2022-09-26T02:43:36.767Z,1003.59
2022-09-26T02:44:41.000Z,1003.57
2022-09-26T02:45:45.287Z,1003.55
2022-09-26T02:46:49.581Z,1003.55
2022-09-26T02:47:53.749Z,1003.53
2022-09-26T02:48:58.076Z,1003.53
2022-09-26T02:50:02.253Z,1003.52
2022-09-26T02:51:06.492Z,1003.51
2022-09-26T02:52:10.714Z,1003.47
2022-09-26T02:53:14.965Z,1003.46
2022-09-26T02:54:19.285Z,1003.44
2022-09-26T02:55:23.455Z,1003.43
2022-09-26T02:56:27.755Z,1003.44
2022-09-26T02:57:31.932Z,1003.41
2022-09-26T02:58:36.170Z,1003.42
2022-09-26T02:59:40.437Z,1003.42
2022-09-26T03:00:44.696Z,1003.41
2022-09-26T03:01:48.894Z,1003.43
2022-09-26T03:02:53.241Z,1003.42
2022-09-26T03:03:57.521Z,1003.41
2022-09-26T03:05:01.768Z,1003.40
2022-09-26T03:06:05.957Z,1003.41
2022-09-26T03:07:10.140Z,1003.40
2022-09-26T03:08:14.395Z,1003.38
2022-09-26T03:09:18.638Z,1003.35
2022-09-26T03:10:22.865Z,1003.33
2022-09-26T03:11:27.114Z,1003.31
2022-09-26T03:12:31.387Z,1003.27
2022-09-26T03:13:35.635Z,1003.25
2022-09-26T03:14:39.862Z,1003.25
2022-09-26T03:15:44.091Z,1003.21
2022-09-26T03:16:48.456Z,1003.18
2022-09-26T03:17:52.606Z,1003.18
2022-09-26T03:18:56.878Z,1003.14
2022-09-26T03:20:01.096Z,1003.11
2022-09-26T03:21:05.207Z,1003.10
2022-09-26T03:22:09.763Z,1003.07
2022-09-26T03:23:13.856Z,1003.10
2022-09-26T03:24:18.085Z,1003.11
2022-09-26T03:25:22.331Z,1003.10
2022-09-26T03:26:26.613Z,1003.07
2022-09-26T03:27:30.897Z,1003.04
2022-09-26T03:28:37.773Z,1003.01
2022-09-26T03:29:39.323Z,1003.01
2022-09-26T03:30:43.583Z,1003.00
2022-09-26T03:31:47.935Z,1002.99
2022-09-26T03:32:52.133Z,1002.98
2022-09-26T03:33:56.405Z,1002.99
2022-09-26T03:35:00.633Z,1002.98
2022-09-26T03:36:04.879Z,1002.95
2022-09-26T03:37:09.121Z,1002.96
2022-09-26T03:38:14.520Z,1002.93
2022-09-26T03:39:17.708Z,1002.92
2022-09-26T03:40:22.076Z,1002.90
2022-09-26T03:41:26.299Z,1002.91
2022-09-26T03:42:30.512Z,1002.89
2022-09-26T03:43:34.855Z,1002.85
2022-09-26T03:44:39.127Z,1002.86
2022-09-26T03:45:43.362Z,1002.84
2022-09-26T03:46:47.575Z,1002.83
2022-09-26T03:47:51.820Z,1002.82
2022-09-26T03:48:56.138Z,1002.79
2022-09-26T03:50:00.410Z,1002.76
2022-09-26T03:51:04.648Z,1002.77
2022-09-26T03:52:08.912Z,1002.76
2022-09-26T03:53:13.112Z,1002.74
2022-09-26T03:54:17.469Z,1002.72
2022-09-26T03:55:21.620Z,1002.71
2022-09-26T03:56:25.755Z,1002.71
2022-09-26T03:57:30.073Z,1002.71
2022-09-26T03:58:34.385Z,1002.70
2022-09-26T03:59:38.663Z,1002.70
2022-09-26T04:00:42.973Z,1002.72
2022-09-26T04:01:47.171Z,1002.69
2022-09-26T04:02:51.355Z,1002.67
2022-09-26T04:03:55.700Z,1002.66
2022-09-26T04:04:59.893Z,1002.67
2022-09-26T04:06:04.194Z,1002.65
2022-09-26T04:07:08.393Z,1002.63
2022-09-26T04:08:12.594Z,1002.61
2022-09-26T04:09:17.398Z,1002.58
2022-09-26T04:10:21.149Z,1002.57
2022-09-26T04:11:25.367Z,1002.54
2022-09-26T04:12:29.677Z,1002.54
2022-09-26T04:13:50.790Z,1002.57
2022-09-26T04:14:38.077Z,1002.54
2022-09-26T04:15:42.301Z,1002.54
2022-09-26T04:16:46.596Z,1002.51
2022-09-26T04:17:50.748Z,1002.50
2022-09-26T04:18:55.129Z,1002.46
2022-09-26T04:19:59.275Z,1002.49
2022-09-26T04:21:06.792Z,1002.47
2022-09-26T04:22:07.786Z,1002.46
2022-09-26T04:23:12.009Z,1002.46
2022-09-26T04:24:16.210Z,1002.44
2022-09-26T04:25:20.453Z,1002.46
2022-09-26T04:26:24.900Z,1002.43
2022-09-26T04:27:28.997Z,1002.39
2022-09-26T04:28:33.201Z,1002.38
2022-09-26T04:29:37.398Z,1002.36
2022-09-26T04:30:41.640Z,1002.34
2022-09-26T04:31:46.001Z,1002.33
2022-09-26T04:32:50.091Z,1002.34
2022-09-26T04:33:54.265Z,1002.35
2022-09-26T04:34:58.571Z,1002.35
2022-09-26T04:36:02.809Z,1002.35
2022-09-26T04:37:07.052Z,1002.34
2022-09-26T04:38:11.267Z,1002.33
2022-09-26T04:39:15.724Z,1002.34
2022-09-26T04:40:20.843Z,1002.35
2022-09-26T04:41:24.606Z,1002.35
2022-09-26T04:42:28.821Z,1002.37
2022-09-26T04:43:33.124Z,1002.35
2022-09-26T04:44:38.234Z,1002.34
2022-09-26T04:45:42.121Z,1002.35
2022-09-26T04:46:46.294Z,1002.34
2022-09-26T04:47:50.621Z,1002.33
2022-09-26T04:48:54.850Z,1002.33
2022-09-26T04:49:59.064Z,1002.30
2022-09-26T04:51:03.380Z,1002.29
2022-09-26T04:52:07.584Z,1002.30
2022-09-26T04:53:11.833Z,1002.29
2022-09-26T04:54:16.077Z,1002.29
2022-09-26T04:55:20.315Z,1002.25
2022-09-26T04:56:24.536Z,1002.25
2022-09-26T04:57:28.655Z,1002.24
2022-09-26T04:58:33.053Z,1002.22
2022-09-26T04:59:37.223Z,1002.19
2022-09-26T05:00:41.628Z,1002.18
2022-09-26T05:01:45.765Z,1002.17
2022-09-26T05:02:49.924Z,1002.17
2022-09-26T05:03:54.181Z,1002.16
2022-09-26T05:04:58.406Z,1002.15
2022-09-26T05:06:02.659Z,1002.12
2022-09-26T05:07:06.911Z,1002.10
2022-09-26T05:08:11.143Z,1002.08
2022-09-26T05:09:15.493Z,1002.06
2022-09-26T05:10:19.666Z,1002.04
2022-09-26T05:11:23.880Z,1002.06
2022-09-26T05:12:28.226Z,1002.03
2022-09-26T05:13:32.429Z,1002.00
2022-09-26T05:14:36.677Z,1001.99
2022-09-26T05:15:40.870Z,1001.97
2022-09-26T05:16:45.279Z,1001.94
2022-09-26T05:17:49.441Z,1001.91
2022-09-26T05:18:53.704Z,1001.90
2022-09-26T05:19:57.951Z,1001.88
2022-09-26T05:21:02.202Z,1001.85
2022-09-26T05:22:06.447Z,1001.86
2022-09-26T05:23:10.679Z,1001.86
2022-09-26T05:24:14.902Z,1001.85
2022-09-26T05:25:19.105Z,1001.85
2022-09-26T05:26:23.347Z,1001.83
2022-09-26T05:27:27.584Z,1001.86
2022-09-26T05:28:31.857Z,1001.86
2022-09-26T05:29:36.104Z,1001.85
2022-09-26T05:30:40.473Z,1001.84
2022-09-26T05:31:44.690Z,1001.86
2022-09-26T05:32:48.876Z,1001.86
2022-09-26T05:33:53.124Z,1001.87
2022-09-26T05:34:57.471Z,1001.83
2022-09-26T05:36:01.666Z,1001.81
2022-09-26T05:37:05.907Z,1001.83
2022-09-26T05:38:10.148Z,1001.83
2022-09-26T05:39:14.482Z,1001.81
2022-09-26T05:40:18.743Z,1001.82
2022-09-26T05:41:22.925Z,1001.82
2022-09-26T05:42:27.176Z,1001.83
2022-09-26T05:43:31.391Z,1001.84
2022-09-26T05:44:35.649Z,1001.84
2022-09-26T05:45:39.868Z,1001.79
2022-09-26T05:46:44.275Z,1001.79
2022-09-26T05:47:48.435Z,1001.77
2022-09-26T05:48:52.684Z,1001.76
2022-09-26T05:49:56.838Z,1001.75
2022-09-26T05:51:01.209Z,1001.75
2022-09-26T05:52:05.411Z,1001.74
2022-09-26T05:53:09.661Z,1001.72
2022-09-26T05:54:13.914Z,1001.70
2022-09-26T05:55:18.323Z,1001.70
2022-09-26T05:56:22.612Z,1001.68
2022-09-26T05:57:26.769Z,1001.68
2022-09-26T05:58:31.050Z,1001.65
2022-09-26T05:59:35.273Z,1001.66
2022-09-26T06:00:39.588Z,1001.64
2022-09-26T06:01:43.887Z,1001.66
2022-09-26T06:02:48.054Z,1001.62
2022-09-26T06:03:52.351Z,1001.63
2022-09-26T06:04:56.565Z,1001.64
2022-09-26T06:06:00.807Z,1001.62
2022-09-26T06:07:05.042Z,1001.64
2022-09-26T06:08:09.368Z,1001.63
2022-09-26T06:09:13.582Z,1001.60
2022-09-26T06:10:17.902Z,1001.55
2022-09-26T06:11:22.102Z,1001.57
2022-09-26T06:12:26.290Z,1001.55
2022-09-26T06:13:30.548Z,1001.55
2022-09-26T06:14:34.780Z,1001.54
2022-09-26T06:15:39.114Z,1001.53
2022-09-26T06:16:43.360Z,1001.53
2022-09-26T06:17:47.543Z,1001.51
2022-09-26T06:18:54.868Z,1001.49
2022-09-26T06:19:58.126Z,1001.46
2022-09-26T06:21:02.356Z,1001.43
2022-09-26T06:22:06.614Z,1001.43
2022-09-26T06:23:10.890Z,1001.44
2022-09-26T06:24:15.215Z,1001.40
2022-09-26T06:25:19.433Z,1001.39
2022-09-26T06:26:23.717Z,1001.39
2022-09-26T06:27:27.941Z,1001.38
2022-09-26T06:28:32.308Z,1001.39
2022-09-26T06:29:36.506Z,1001.39
2022-09-26T06:30:40.793Z,1001.39
2022-09-26T06:31:45.188Z,1001.37
2022-09-26T06:32:49.319Z,1001.37
2022-09-26T06:33:53.574Z,1001.36
2022-09-26T06:34:57.855Z,1001.33
2022-09-26T06:36:02.141Z,1001.32
2022-09-26T06:37:06.378Z,1001.30
2022-09-26T06:38:10.710Z,1001.28
2022-09-26T06:39:15.126Z,1001.31
2022-09-26T06:40:19.328Z,1001.27
2022-09-26T06:41:23.466Z,1001.28
2022-09-26T06:42:27.766Z,1001.28
2022-09-26T06:43:31.985Z,1001.30
2022-09-26T06:44:36.345Z,1001.29
2022-09-26T06:45:40.641Z,1001.28
2022-09-26T06:46:44.953Z,1001.28
2022-09-26T06:47:49.123Z,1001.27
2022-09-26T06:48:53.390Z,1001.26
2022-09-26T06:49:57.749Z,1001.26
2022-09-26T06:51:02.038Z,1001.25
2022-09-26T06:52:06.188Z,1001.25
2022-09-26T06:53:10.503Z,1001.25
2022-09-26T06:54:14.753Z,1001.26
2022-09-26T06:55:19.081Z,1001.22
2022-09-26T06:56:23.271Z,1001.22
2022-09-26T06:57:27.531Z,1001.26
2022-09-26T06:58:31.853Z,1001.25
2022-09-26T06:59:36.096Z,1001.23
2022-09-26T07:00:40.471Z,1001.22
2022-09-26T07:01:44.777Z,1001.22
2022-09-26T07:02:48.937Z,1001.20
2022-09-26T07:03:54.444Z,1001.21
2022-09-26T07:04:57.414Z,1001.19
2022-09-26T07:06:01.774Z,1001.18
2022-09-26T07:07:06.020Z,1001.15
2022-09-26T07:08:13.266Z,1001.17
2022-09-26T07:09:17.042Z,1001.16
2022-09-26T07:10:20.844Z,1001.15
2022-09-26T07:11:38.206Z,1001.14
2022-09-26T07:12:29.408Z,1001.13
2022-09-26T07:13:33.766Z,1001.12
2022-09-26T07:14:38.004Z,1001.14
2022-09-26T07:15:42.404Z,1001.12
2022-09-26T07:16:46.600Z,1001.10
2022-09-26T07:17:50.869Z,1001.07
2022-09-26T07:18:55.161Z,1001.10
2022-09-26T07:19:59.441Z,1001.07
2022-09-26T07:21:03.643Z,1001.04
2022-09-26T07:22:08.099Z,1001.03
2022-09-26T07:23:12.185Z,1001.00
2022-09-26T07:24:16.515Z,1000.98
2022-09-26T07:25:20.747Z,1000.98
2022-09-26T07:26:25.106Z,1000.96
2022-09-26T07:27:29.418Z,1000.99
2022-09-26T07:28:33.656Z,1000.97
2022-09-26T07:29:37.916Z,1000.98
2022-09-26T07:30:42.198Z,1000.94
2022-09-26T07:31:46.532Z,1000.91
2022-09-26T07:32:50.664Z,1000.91
2022-09-26T07:33:55.039Z,1000.91
2022-09-26T07:34:59.281Z,1000.89
2022-09-26T07:36:05.667Z,1000.88
2022-09-26T07:37:07.868Z,1000.84
2022-09-26T07:38:12.202Z,1000.82
2022-09-26T07:39:16.657Z,1000.85
2022-09-26T07:40:20.710Z,1000.84
2022-09-26T07:41:24.979Z,1000.82
2022-09-26T07:42:29.223Z,1000.82
2022-09-26T07:44:19.246Z,1000.80
2022-09-26T07:45:42.052Z,1000.80
2022-09-26T07:46:46.469Z,1000.79
2022-09-26T07:47:50.717Z,1000.76
2022-09-26T07:48:54.996Z,1000.79
2022-09-26T07:49:59.333Z,1000.82
2022-09-26T07:51:08.433Z,1000.79
2022-09-26T07:52:07.871Z,1000.79
2022-09-26T07:53:12.181Z,1000.80
2022-09-26T07:54:16.544Z,1000.77
2022-09-26T07:55:20.742Z,1000.75
2022-09-26T07:56:25.129Z,1000.75
2022-09-26T07:57:29.402Z,1000.74
2022-09-26T07:58:33.653Z,1000.76
2022-09-26T07:59:37.954Z,1000.74
2022-09-26T08:00:42.235Z,1000.71
2022-09-26T08:01:46.613Z,1000.72
2022-09-26T08:02:50.989Z,1000.70
2022-09-26T08:03:55.116Z,1000.72
2022-09-26T08:05:01.193Z,1000.73
2022-09-26T08:06:03.654Z,1000.72
2022-09-26T08:07:08.033Z,1000.74
2022-09-26T08:08:12.258Z,1000.74
2022-09-26T08:09:16.641Z,1000.73
2022-09-26T08:10:20.870Z,1000.70
2022-09-26T08:11:25.252Z,1000.71
2022-09-26T08:12:29.474Z,1000.68
2022-09-26T08:13:33.703Z,1000.67
2022-09-26T08:14:38.067Z,1000.67
2022-09-26T08:15:42.393Z,1000.66
2022-09-26T08:16:46.566Z,1000.66
2022-09-26T08:17:50.943Z,1000.62
2022-09-26T08:18:55.291Z,1000.62
2022-09-26T08:19:59.527Z,1000.62
2022-09-26T08:21:03.830Z,1000.63
2022-09-26T08:22:08.145Z,1000.61
2022-09-26T08:23:12.371Z,1000.62
2022-09-26T08:24:16.776Z,1000.62
2022-09-26T08:25:20.936Z,1000.61
2022-09-26T08:26:25.252Z,1000.62
2022-09-26T08:27:29.578Z,1000.60
2022-09-26T08:28:33.831Z,1000.57
2022-09-26T08:29:38.120Z,1000.55
2022-09-26T08:30:42.375Z,1000.55
2022-09-26T08:31:46.699Z,1000.54
2022-09-26T08:32:50.953Z,1000.55
2022-09-26T08:33:55.260Z,1000.57
2022-09-26T08:34:59.532Z,1000.52
2022-09-26T08:36:03.870Z,1000.53
2022-09-26T08:37:08.109Z,1000.54
2022-09-26T08:38:12.456Z,1000.54
2022-09-26T08:39:16.677Z,1000.56
2022-09-26T08:40:21.200Z,1000.55
2022-09-26T08:41:25.246Z,1000.59
2022-09-26T08:42:29.505Z,1000.57
2022-09-26T08:43:33.880Z,1000.58
2022-09-26T08:44:38.122Z,1000.60
2022-09-26T08:45:47.275Z,1000.57
2022-09-26T08:46:46.808Z,1000.58
2022-09-26T08:47:50.982Z,1000.57
2022-09-26T08:48:55.307Z,1000.55
2022-09-26T08:49:59.563Z,1000.53
2022-09-26T08:51:03.938Z,1000.54
2022-09-26T08:52:08.267Z,1000.53
2022-09-26T08:53:12.534Z,1000.52
2022-09-26T08:54:16.790Z,1000.51
2022-09-26T08:55:21.114Z,1000.54
2022-09-26T08:56:25.525Z,1000.51
2022-09-26T08:57:29.809Z,1000.55
2022-09-26T08:58:34.170Z,1000.49
2022-09-26T08:59:38.365Z,1000.46
2022-09-26T09:00:42.711Z,1000.44
2022-09-26T09:01:47.227Z,1000.46
2022-09-26T09:02:51.375Z,1000.44
2022-09-26T09:03:55.537Z,1000.45
2022-09-26T09:04:59.812Z,1000.46
2022-09-26T09:06:04.170Z,1000.45
2022-09-26T09:07:08.489Z,1000.45
2022-09-26T09:08:12.819Z,1000.40
2022-09-26T09:09:17.051Z,1000.39
2022-09-26T09:10:21.375Z,1000.39
2022-09-26T09:11:25.714Z,1000.38
2022-09-26T09:12:32.259Z,1000.37
2022-09-26T09:13:34.256Z,1000.35
2022-09-26T09:14:38.646Z,1000.32
2022-09-26T09:15:42.879Z,1000.30
2022-09-26T09:16:47.176Z,1000.32
2022-09-26T09:17:51.650Z,1000.31
2022-09-26T09:18:57.272Z,1000.29
2022-09-26T09:20:01.251Z,1000.25
2022-09-26T09:21:05.513Z,1000.25
2022-09-26T09:22:09.865Z,1000.24
2022-09-26T09:23:14.208Z,1000.25
2022-09-26T09:24:18.618Z,1000.27
2022-09-26T09:25:22.858Z,1000.27
2022-09-26T09:28:35.719Z,1000.24
2022-09-26T09:29:40.077Z,1000.24
2022-09-26T09:30:44.466Z,1000.25
2022-09-26T09:31:48.766Z,1000.22
2022-09-26T09:32:53.001Z,1000.22
2022-09-26T09:33:57.297Z,1000.19
2022-09-26T09:35:01.557Z,1000.20
2022-09-26T09:36:05.852Z,1000.19
2022-09-26T09:37:10.137Z,1000.19
2022-09-26T09:38:14.369Z,1000.17
2022-09-26T09:39:18.693Z,1000.17
2022-09-26T09:40:23.075Z,1000.17
2022-09-26T09:41:27.279Z,1000.15
2022-09-26T09:42:31.675Z,1000.12
2022-09-26T09:43:36.008Z,1000.09
2022-09-26T09:44:45.630Z,1000.08
2022-09-26T09:45:44.516Z,1000.03
2022-09-26T09:46:48.943Z,1000.02
2022-09-26T09:47:53.147Z,1000.01
2022-09-26T09:48:57.454Z,1000.03
2022-09-26T09:50:01.689Z,1000.00
2022-09-26T09:51:06.075Z,999.99
2022-09-26T09:52:10.317Z,999.96
2022-09-26T09:53:14.675Z,999.95
2022-09-26T09:54:18.929Z,999.90
2022-09-26T09:55:23.249Z,999.90
2022-09-26T09:56:27.529Z,999.89
2022-09-26T09:57:32.012Z,999.87
2022-09-26T09:58:36.236Z,999.86
2022-09-26T09:59:40.596Z,999.84
2022-09-26T10:00:49.030Z,999.83
2022-09-26T10:01:49.241Z,999.84
2022-09-26T10:02:53.550Z,999.83
2022-09-26T10:03:57.749Z,999.84
2022-09-26T10:05:02.157Z,999.84
2022-09-26T10:06:09.427Z,999.85
2022-09-26T10:07:10.663Z,999.79
2022-09-26T10:08:14.938Z,999.82
2022-09-26T10:09:38.773Z,999.82
2022-09-26T10:10:23.757Z,999.83
2022-09-26T10:11:28.102Z,999.81
2022-09-26T10:12:32.384Z,999.79
2022-09-26T10:13:36.741Z,999.78
2022-09-26T10:14:40.989Z,999.79
2022-09-26T10:15:45.285Z,999.76
2022-09-26T10:16:49.604Z,999.80
2022-09-26T10:18:19.864Z,999.74
2022-09-26T10:19:03.115Z,999.70
2022-09-26T10:20:02.578Z,999.72
2022-09-26T10:21:06.858Z,999.71
2022-09-26T10:22:11.233Z,999.68
2022-09-26T10:23:15.546Z,999.70
2022-09-26T10:24:19.850Z,999.72
2022-09-26T10:25:24.096Z,999.69
2022-09-26T10:26:31.413Z,999.71
2022-09-26T10:27:32.660Z,999.70
2022-09-26T10:28:36.936Z,999.67
2022-09-26T10:29:41.244Z,999.69
2022-09-26T10:30:45.674Z,999.64
2022-09-26T10:31:49.869Z,999.64
2022-09-26T10:32:56.504Z,999.65
2022-09-26T10:33:58.441Z,999.63
2022-09-26T10:35:02.757Z,999.61
2022-09-26T10:36:07.103Z,999.62
2022-09-26T10:37:11.448Z,999.60
2022-09-26T10:38:15.702Z,999.58
2022-09-26T10:39:20.015Z,999.56
2022-09-26T10:40:24.504Z,999.55
2022-09-26T10:41:28.734Z,999.58
2022-09-26T10:42:33.040Z,999.54
2022-09-26T10:43:37.490Z,999.53
2022-09-26T10:44:41.809Z,999.54
2022-09-26T10:45:46.023Z,999.51
2022-09-26T10:46:50.423Z,999.47
2022-09-26T10:47:54.662Z,999.44
2022-09-26T10:48:58.957Z,999.46
2022-09-26T10:50:03.241Z,999.40
2022-09-26T10:51:07.584Z,999.40
2022-09-26T10:52:17.581Z,999.44
2022-09-26T10:53:16.322Z,999.46
2022-09-26T10:54:20.684Z,999.48
2022-09-26T10:55:24.978Z,999.40
2022-09-26T10:56:29.298Z,999.40
2022-09-26T10:57:33.618Z,999.36
2022-09-26T10:58:37.795Z,999.33
2022-09-26T10:59:42.148Z,999.35
2022-09-26T11:00:46.437Z,999.35
2022-09-26T11:01:50.783Z,999.35
2022-09-26T11:02:55.038Z,999.31
2022-09-26T11:03:59.537Z,999.28
2022-09-26T11:05:03.719Z,999.29
2022-09-26T11:06:08.119Z,999.29
2022-09-26T11:07:12.453Z,999.25
2022-09-26T11:08:16.667Z,999.24
2022-09-26T11:09:21.099Z,999.22
2022-09-26T11:10:25.436Z,999.18
2022-09-26T11:11:29.874Z,999.16
2022-09-26T11:12:34.139Z,999.13
2022-09-26T11:13:38.419Z,999.12
2022-09-26T11:14:43.711Z,999.08
2022-09-26T11:15:47.649Z,999.09
2022-09-26T11:16:51.922Z,999.06
2022-09-26T11:17:56.204Z,999.01
2022-09-26T11:19:00.514Z,998.95
2022-09-26T11:20:04.874Z,998.95
2022-09-26T11:21:27.516Z,998.97
2022-09-26T11:22:13.420Z,998.94
2022-09-26T11:23:17.709Z,998.94
2022-09-26T11:24:22.095Z,998.92
2022-09-26T11:25:26.334Z,998.88
2022-09-26T11:26:30.636Z,998.85
2022-09-26T11:27:34.942Z,998.87
2022-09-26T11:28:39.269Z,998.87
2022-09-26T11:29:43.676Z,998.84
2022-09-26T11:30:47.998Z,998.78
2022-09-26T11:31:52.701Z,998.76
2022-09-26T11:32:56.555Z,998.78
2022-09-26T11:34:01.064Z,998.73
2022-09-26T11:35:05.301Z,998.74
2022-09-26T11:36:09.594Z,998.77
2022-09-26T11:37:14.032Z,998.72
2022-09-26T11:38:18.266Z,998.74
2022-09-26T11:39:22.748Z,998.74
2022-09-26T11:40:27.015Z,998.73
2022-09-26T11:41:31.398Z,998.73
2022-09-26T11:42:35.807Z,998.68
2022-09-26T11:43:40.146Z,998.64
2022-09-26T11:44:44.482Z,998.67
2022-09-26T11:45:48.838Z,998.64
2022-09-26T11:46:53.223Z,998.63
2022-09-26T11:47:57.372Z,998.60
2022-09-26T11:49:01.668Z,998.60
2022-09-26T11:50:06.052Z,998.53
2022-09-26T11:51:10.316Z,998.55
2022-09-26T11:52:14.756Z,998.52
2022-09-26T11:53:19.029Z,998.50
2022-09-26T11:54:23.336Z,998.51
2022-09-26T11:55:27.835Z,998.47
2022-09-26T11:56:32.016Z,998.42
2022-09-26T11:57:36.437Z,998.36
2022-09-26T11:58:40.685Z,998.35
2022-09-26T11:59:45.183Z,998.34
2022-09-26T12:00:49.407Z,998.35
2022-09-26T12:01:53.733Z,998.32
2022-09-26T12:02:58.088Z,998.30
2022-09-26T12:04:02.505Z,998.27
2022-09-26T12:05:06.740Z,998.26
2022-09-26T12:06:11.079Z,998.24
2022-09-26T12:07:15.480Z,998.20
2022-09-26T12:08:19.761Z,998.17
2022-09-26T12:09:24.159Z,998.16
2022-09-26T12:10:28.401Z,998.10
2022-09-26T12:11:32.760Z,998.12
2022-09-26T12:12:40.574Z,998.11
2022-09-26T12:13:41.380Z,998.10
2022-09-26T12:14:45.696Z,998.12
2022-09-26T12:15:50.061Z,998.10
2022-09-26T12:16:54.307Z,998.07
2022-09-26T12:17:58.619Z,998.10
2022-09-26T12:19:02.942Z,998.09
2022-09-26T12:20:07.244Z,998.03
2022-09-26T12:21:11.618Z,998.07
2022-09-26T12:22:15.979Z,998.07
2022-09-26T12:23:20.324Z,998.07
2022-09-26T12:24:24.625Z,998.05
2022-09-26T12:25:28.983Z,998.07
2022-09-26T12:26:33.252Z,998.05
2022-09-26T12:27:37.609Z,998.01
2022-09-26T12:28:41.899Z,997.98
2022-09-26T12:29:46.297Z,998.03
2022-09-26T12:30:50.622Z,998.01
2022-09-26T12:31:55.100Z,998.00
2022-09-26T12:32:59.323Z,998.03
2022-09-26T12:34:03.703Z,998.03
2022-09-26T12:35:07.919Z,998.09
2022-09-26T12:36:12.252Z,998.08
2022-09-26T12:37:16.673Z,998.02
2022-09-26T12:38:20.960Z,998.06
2022-09-26T12:39:25.342Z,998.06
2022-09-26T12:40:30.705Z,998.04
2022-09-26T12:41:34.553Z,998.04
2022-09-26T12:42:38.883Z,998.02
2022-09-26T12:43:43.231Z,998.03
2022-09-26T12:44:47.498Z,998.02
2022-09-26T12:45:53.385Z,997.96
2022-09-26T12:46:56.263Z,997.96
2022-09-26T12:49:27.793Z,997.94
2022-09-26T12:50:31.965Z,997.90
2022-09-26T12:51:36.175Z,997.90
2022-09-26T12:52:40.431Z,997.92
2022-09-26T12:53:45.763Z,997.86
2022-09-26T12:54:49.719Z,997.85
2022-09-26T12:55:54.075Z,997.88
2022-09-26T12:56:58.321Z,997.83
2022-09-26T12:58:02.599Z,997.82
2022-09-26T12:59:07.088Z,997.81
2022-09-26T13:00:14.294Z,997.80
2022-09-26T13:01:17.877Z,997.75
2022-09-26T13:02:22.167Z,997.75
2022-09-26T13:03:26.365Z,997.73
2022-09-26T13:04:30.774Z,997.70
2022-09-26T13:05:35.187Z,997.66
2022-09-26T13:06:39.391Z,997.63
2022-09-26T13:07:43.798Z,997.61
2022-09-26T13:08:48.161Z,997.60